Latest Weather Observations for Kalumburu

IDD60801

Issued at 6:03 pm CST Tuesday 31 March 2015 (issued every 30 minutes, with the page automatically refreshed every 10 minutes)

About weather observations | Map of weather stations | Latest weather observations for NT | Other Formats
Station Details ID: 001019 Name: KALUMBURU Lat: -14.30 Lon: 126.65 Height: 23.0 m
Data from the previous 72 hours. | See also: Recent months at Kalumburu
Date/Time
CST
Temp
°C
App
Temp
°C
Dew
Point
Rel
Hum
%
Delta-T
°C
Wind Press
QNH
hPa
Press
MSL
hPa
Rain
since 9 am
mm
Dir
 
Spd
km/h
Gust
km/h
Spd
kts
Gust
kts
31/06:00pm 33.2 35.7 21.7 51 7.8 N 11 17 6 9 1010.1 1009.9 0.0
31/05:30pm 33.5 35.0 20.6 46 8.7 N 13 19 7 10 1009.9 1009.7 0.0
31/05:00pm 34.2 36.1 21.3 47 8.7 N 13 22 7 12 1009.8 1009.6 0.0
31/04:30pm 34.8 35.3 18.4 38 10.7 NNE 13 19 7 10 1009.8 1009.6 0.0
31/04:00pm 35.5 34.6 15.8 31 12.4 NE 15 24 8 13 1009.7 1009.5 0.0
31/03:30pm 35.8 35.3 17.0 32 12.1 NE 15 28 8 15 1009.8 1009.6 0.0
31/03:00pm 35.9 35.1 16.1 30 12.6 ENE 15 30 8 16 1010.0 1009.8 0.0
31/02:30pm 34.3 34.8 18.3 38 10.4 ENE 13 24 7 13 1010.4 1010.2 0.0
31/02:00pm 34.9 34.5 18.9 39 10.5 E 19 33 10 18 1010.7 1010.5 0.0
31/01:30pm 34.4 35.8 19.6 41 9.8 ENE 11 19 6 10 1011.2 1011.0 0.0
31/01:00pm 34.4 35.1 18.8 39 10.2 ENE 13 20 7 11 1011.8 1011.6 0.0
31/12:30pm 34.0 36.9 21.1 47 8.7 NNE 7 15 4 8 1012.4 1012.2 0.0
31/12:00pm 33.4 37.3 22.5 52 7.5 NNE 6 13 3 7 1012.9 1012.7 0.0
31/11:30am 33.0 36.7 21.5 50 7.8 NNE 4 11 2 6 1013.5 1013.3 0.0
31/11:00am 31.6 35.3 22.3 57 6.3 SW 6 9 3 5 1013.8 1013.6 0.0
31/10:30am 31.0 35.3 22.6 61 5.7 SW 4 7 2 4 1013.9 1013.7 0.0
31/10:00am 30.4 35.3 24.3 70 4.3 S 6 9 3 5 1014.1 1013.9 0.0
31/09:30am 29.2 33.8 24.1 74 3.5 SSE 7 11 4 6 1014.1 1013.9 0.0
31/09:00am 28.2 32.6 23.8 77 3.0 SSE 7 11 4 6 1014.0 1013.8 0.0
31/08:30am 27.3 33.4 24.4 84 2.0 CALM 0 7 0 4 1013.7 1013.5 0.0
31/08:00am 26.0 32.1 24.4 91 1.1 CALM 0 6 0 3 1013.3 1013.1 0.0
31/07:30am 24.4 29.5 22.7 90 1.1 CALM 0 0 0 0 1013.1 1012.9 0.0
31/07:00am 24.3 29.4 22.6 90 1.1 CALM 0 0 0 0 1012.7 1012.5 0.0
31/06:30am 24.2 29.2 22.5 90 1.1 CALM 0 0 0 0 1012.6 1012.4 0.0
31/06:00am 24.2 29.2 22.5 90 1.1 CALM 0 0 0 0 1012.2 1012.0 0.0
31/05:30am 24.5 29.6 22.7 90 1.2 CALM 0 0 0 0 1012.0 1011.8 0.0
31/05:00am 24.5 29.6 22.7 90 1.2 CALM 0 0 0 0 1011.7 1011.5 0.0
31/04:30am 24.5 29.6 22.7 90 1.2 CALM 0 0 0 0 1011.4 1011.2 0.0
31/04:00am 24.7 29.9 22.9 90 1.2 CALM 0 0 0 0 1011.3 1011.1 0.0
31/03:30am 24.4 29.4 22.5 89 1.3 CALM 0 0 0 0 1011.4 1011.2 0.0
31/03:00am 24.9 30.2 23.0 89 1.3 CALM 0 0 0 0 1011.7 1011.5 0.0
31/02:30am 25.1 30.5 23.2 89 1.3 CALM 0 0 0 0 1011.8 1011.6 0.0
31/02:00am 25.2 30.6 23.3 89 1.3 CALM 0 0 0 0 1012.0 1011.8 0.0
31/01:30am 25.1 30.4 23.0 88 1.4 CALM 0 0 0 0 1012.3 1012.1 0.0
31/01:00am 25.2 30.3 22.7 86 1.7 CALM 0 0 0 0 1012.5 1012.3 0.0
31/12:30am 26.3 31.2 24.3 89 1.4 S 6 9 3 5 1012.6 1012.4 0.0
31/12:00am 25.9 31.7 23.9 89 1.4 CALM 0 0 0 0 1013.0 1012.8 0.0
 
Date/Time
CST
Temp
°C
App
Temp
°C
Dew
Point
Rel
Hum
%
Delta-T
°C
Wind Press
QNH
hPa
Press
MSL
hPa
Rain
since 9 am
mm
Dir
 
Spd
km/h
Gust
km/h
Spd
kts
Gust
kts
30/11:30pm 25.9 31.6 23.8 88 1.4 CALM 0 0 0 0 1013.2 1013.0 0.0
30/11:00pm 25.9 31.4 23.4 86 1.7 CALM 0 0 0 0 1013.4 1013.2 0.0
30/10:30pm 26.1 31.8 23.8 87 1.6 CALM 0 0 0 0 1013.5 1013.3 0.0
30/10:00pm 26.2 31.8 23.5 85 1.8 CALM 0 0 0 0 1013.5 1013.3 0.0
30/09:30pm 26.7 32.4 23.8 84 2.0 CALM 0 0 0 0 1013.3 1013.1 0.0
30/09:00pm 27.0 32.7 23.7 82 2.3 CALM 0 4 0 2 1013.0 1012.8 0.0
30/08:30pm 27.4 31.6 23.4 79 2.7 NE 7 7 4 4 1012.4 1012.2 0.0
30/08:00pm 28.2 32.3 23.3 75 3.4 NE 7 9 4 5 1011.9 1011.7 0.0
30/07:30pm 28.4 32.6 23.1 73 3.6 NE 6 7 3 4 1011.6 1011.4 0.0
30/07:00pm 30.1 34.1 22.8 65 5.0 N 6 9 3 5 1011.3 1011.1 0.0
30/06:30pm 31.3 33.9 22.6 60 6.0 N 13 17 7 9 1010.9 1010.7 0.0
30/06:00pm 32.0 34.5 22.4 57 6.6 NNW 13 19 7 10 1010.8 1010.6 0.0
30/05:30pm 32.6 35.1 22.4 55 7.0 N 13 17 7 9 1010.6 1010.4 0.0
30/05:00pm 33.1 35.8 22.8 54 7.1 NNW 13 19 7 10 1010.4 1010.2 0.0
30/04:30pm 33.3 35.2 22.7 53 7.3 N 17 24 9 13 1010.5 1010.3 0.0
30/04:00pm 33.8 36.0 22.6 52 7.7 NNW 15 22 8 12 1010.5 1010.3 0.0
30/03:30pm 33.5 35.0 22.0 51 7.9 NNW 17 24 9 13 1010.5 1010.3 0.0
30/03:00pm 34.3 36.0 23.0 51 7.8 NNW 19 26 10 14 1010.7 1010.5 0.0
30/02:30pm 33.1 36.2 22.2 52 7.5 NNW 9 17 5 9 1011.1 1010.9 0.0
30/02:00pm 34.4 35.8 19.6 41 9.8 NNW 11 17 6 9 1011.4 1011.2 0.0
30/01:30pm 34.5 36.5 21.5 46 8.8 ENE 13 28 7 15 1011.7 1011.5 0.0
30/01:00pm 34.4 35.8 19.6 41 9.8 NE 11 19 6 10 1012.1 1011.9 0.0
30/12:30pm 34.2 35.0 20.6 45 9.1 NNE 17 24 9 13 1012.5 1012.3 0.0
30/12:00pm 33.4 34.7 20.2 46 8.8 ENE 13 20 7 11 1012.8 1012.6 0.0
30/11:30am 33.0 37.7 23.9 59 6.4 N 6 9 3 5 1013.1 1012.9 0.0
30/11:00am 31.6 36.3 22.6 59 6.2 W 2 7 1 4 1013.4 1013.2 0.0
30/10:30am 30.6 35.3 24.0 68 4.6 SW 6 9 3 5 1013.8 1013.6 0.0
30/10:00am 29.5 34.0 24.6 75 3.4 S 9 13 5 7 1013.8 1013.6 0.0
30/09:30am 28.2 32.5 23.6 76 3.2 SSW 7 11 4 6 1013.6 1013.4 0.0
30/09:00am 27.2 31.5 23.7 81 2.4 SW 7 11 4 6 1013.4 1013.2 0.0
30/08:30am 26.6 31.3 23.9 85 1.9 SSW 6 9 3 5 1013.2 1013.0 0.0
30/08:00am 25.5 31.3 23.9 91 1.1 CALM 0 6 0 3 1012.9 1012.7 0.0
30/07:30am 23.7 28.4 22.0 90 1.1 CALM 0 0 0 0 1012.6 1012.4 0.0
30/07:00am 24.0 28.9 22.3 90 1.1 CALM 0 2 0 1 1012.5 1012.3 0.0
30/06:30am 23.5 28.1 21.8 90 1.1 CALM 0 0 0 0 1012.1 1011.9 0.0
30/06:00am 23.8 28.6 22.1 90 1.1 CALM 0 0 0 0 1011.9 1011.7 0.0
30/05:30am 23.8 28.6 22.1 90 1.1 CALM 0 0 0 0 1011.5 1011.3 0.0
30/05:00am 23.9 28.7 22.2 90 1.1 CALM 0 0 0 0 1011.2 1011.0 0.0
30/04:30am 23.9 28.7 22.2 90 1.1 CALM 0 0 0 0 1011.0 1010.8 0.0
30/04:00am 24.1 29.0 22.4 90 1.1 CALM 0 0 0 0 1011.0 1010.8 0.0
30/03:30am 24.1 29.0 22.4 90 1.1 CALM 0 0 0 0 1010.7 1010.5 0.0
30/03:00am 24.2 29.1 22.3 89 1.3 CALM 0 0 0 0 1010.7 1010.5 0.0
30/02:30am 24.2 29.1 22.3 89 1.3 CALM 0 0 0 0 1010.8 1010.6 0.0
30/02:00am 24.6 29.7 22.7 89 1.3 CALM 0 0 0 0 1011.2 1011.0 0.0
30/01:30am 24.8 30.0 22.9 89 1.3 CALM 0 0 0 0 1011.4 1011.2 0.0
30/01:00am 24.9 30.2 23.0 89 1.3 CALM 0 0 0 0 1011.8 1011.6 0.0
30/12:30am 25.4 31.0 23.5 89 1.3 CALM 0 0 0 0 1012.3 1012.1 0.0
30/12:00am 25.6 31.2 23.5 88 1.4 CALM 0 0 0 0 1012.7 1012.5 0.0
 
Date/Time
CST
Temp
°C
App
Temp
°C
Dew
Point
Rel
Hum
%
Delta-T
°C
Wind Press
QNH
hPa
Press
MSL
hPa
Rain
since 9 am
mm
Dir
 
Spd
km/h
Gust
km/h
Spd
kts
Gust
kts
29/11:30pm 25.5 31.0 23.4 88 1.4 CALM 0 0 0 0 1012.8 1012.6 0.0
29/11:00pm 25.9 31.6 23.8 88 1.4 CALM 0 0 0 0 1013.0 1012.8 0.0
29/10:30pm 25.9 31.6 23.8 88 1.4 CALM 0 0 0 0 1013.3 1013.1 0.0
29/10:00pm 26.1 31.6 23.4 85 1.8 CALM 0 0 0 0 1013.3 1013.1 0.0
29/09:30pm 26.3 31.9 23.6 85 1.8 CALM 0 0 0 0 1013.2 1013.0 0.0
29/09:00pm 26.6 32.2 23.5 83 2.1 CALM 0 0 0 0 1012.9 1012.7 0.0
29/08:30pm 27.0 32.4 23.3 80 2.5 CALM 0 0 0 0 1012.9 1012.7 0.0
29/08:00pm 27.6 32.6 23.2 77 3.0 N 2 6 1 3 1012.6 1012.4 0.0
29/07:30pm 28.5 32.6 23.0 72 3.8 N 6 7 3 4 1012.1 1011.9 0.0
29/07:00pm 29.3 33.0 22.5 67 4.6 NNW 7 13 4 7 1011.8 1011.6 0.0
29/06:30pm 30.4 33.7 22.6 63 5.3 N 9 15 5 8 1011.5 1011.3 0.0
29/06:00pm 31.2 33.7 22.5 60 5.9 N 13 17 7 9 1011.2 1011.0 0.0
29/05:30pm 32.2 34.8 22.6 57 6.6 NNW 13 17 7 9 1011.0 1010.8 0.0
29/05:00pm 32.7 35.4 22.8 56 6.8 NNW 13 19 7 10 1010.9 1010.7 0.0
29/04:30pm 33.0 35.3 22.7 54 7.1 NNW 15 20 8 11 1010.9 1010.7 0.0
29/04:00pm 32.7 34.8 22.5 55 7.0 NNW 15 24 8 13 1010.8 1010.6 0.0
29/03:30pm 33.2 35.1 21.4 50 8.0 NNW 13 20 7 11 1010.8 1010.6 0.0
29/03:00pm 33.1 34.8 20.9 48 8.2 NNW 13 20 7 11 1010.9 1010.7 0.0
29/02:30pm 33.1 34.1 20.3 47 8.5 NNW 15 22 8 12 1011.3 1011.1 0.0
29/02:00pm 33.4 34.6 21.5 49 8.1 NW 17 28 9 15 1011.5 1011.3 0.0
29/01:30pm 34.3 35.7 19.5 41 9.8 NNE 11 17 6 9 1011.9 1011.7 0.0
29/01:00pm 33.6 34.9 19.3 43 9.4 NNE 11 17 6 9 1012.2 1012.0 0.0
29/12:30pm 33.7 36.3 20.5 46 8.8 NNE 7 19 4 10 1012.6 1012.4 0.0
29/12:00pm 32.9 36.0 21.1 50 7.9 ESE 6 13 3 7 1013.1 1012.9 0.0
29/11:30am 31.6 35.4 21.7 55 6.7 W 4 9 2 5 1013.5 1013.3 0.0
29/11:00am 30.8 35.5 22.7 62 5.5 W 2 7 1 4 1013.8 1013.6 0.0
29/10:30am 29.6 33.6 23.1 68 4.5 SSW 7 9 4 5 1013.8 1013.6 15.8
29/10:00am 28.3 32.0 22.5 71 3.9 SSW 7 9 4 5 1013.9 1013.7 15.8
29/09:30am 27.6 31.2 22.3 73 3.6 SSW 7 9 4 5 1013.7 1013.5 15.8
29/09:00am 26.5 30.4 22.6 79 2.6 SSW 6 7 3 4 1013.5 1013.3 15.8
29/08:30am 25.2 29.1 22.5 85 1.8 S 6 9 3 5 1013.4 1013.2 15.8
29/08:00am 23.9 27.4 22.2 90 1.1 SSW 7 11 4 6 1012.9 1012.7 15.8
29/07:30am 22.8 27.1 21.1 90 1.1 CALM 0 0 0 0 1012.4 1012.2 15.8
29/07:00am 22.8 27.1 21.1 90 1.1 CALM 0 0 0 0 1012.1 1011.9 15.8
29/06:30am 23.0 26.0 21.3 90 1.1 S 7 9 4 5 1011.8 1011.6 15.8
29/06:00am 22.6 26.4 20.9 90 1.1 SSE 2 7 1 4 1011.6 1011.4 15.8
29/05:30am 23.0 26.2 21.3 90 1.1 SE 6 7 3 4 1011.4 1011.2 15.8
29/05:00am 23.1 27.1 21.4 90 1.1 S 2 7 1 4 1011.2 1011.0 15.8
29/04:30am 23.2 26.5 21.5 90 1.1 S 6 9 3 5 1011.2 1011.0 15.8
29/04:00am 23.6 27.0 21.7 89 1.3 SSW 6 9 3 5 1011.2 1011.0 15.8
29/03:30am 23.7 27.0 21.8 89 1.3 SSW 7 9 4 5 1011.5 1011.3 15.8
29/03:00am 23.5 27.3 21.6 89 1.3 SW 4 7 2 4 1011.4 1011.2 15.8
29/02:30am 23.5 27.4 21.8 90 1.1 SSW 4 7 2 4 1011.6 1011.4 15.8
29/02:00am 23.3 26.7 21.6 90 1.1 SSW 6 7 3 4 1012.1 1011.9 15.8
29/01:30am 22.7 26.9 21.0 90 1.1 CALM 0 0 0 0 1012.4 1012.2 15.6
29/01:00am 22.6 26.8 20.9 90 1.1 CALM 0 0 0 0 1012.7 1012.5 15.6
29/12:30am 22.8 27.1 21.1 90 1.1 CALM 0 0 0 0 1013.0 1012.8 15.6
29/12:00am 23.1 27.5 21.4 90 1.1 CALM 0 0 0 0 1013.1 1012.9 15.6
 
Date/Time
CST
Temp
°C
App
Temp
°C
Dew
Point
Rel
Hum
%
Delta-T
°C
Wind Press
QNH
hPa
Press
MSL
hPa
Rain
since 9 am
mm
Dir
 
Spd
km/h
Gust
km/h
Spd
kts
Gust
kts
28/11:30pm 23.2 26.9 21.5 90 1.1 SW 4 6 2 3 1013.3 1013.1 15.6
28/11:00pm 23.2 27.6 21.3 89 1.2 CALM 0 0 0 0 1013.5 1013.3 15.6
28/10:30pm 23.2 27.6 21.3 89 1.2 CALM 0 0 0 0 1013.5 1013.3 15.6
28/10:00pm 23.5 26.9 21.6 89 1.3 S 6 7 3 4 1013.4 1013.2 15.6
28/09:30pm 23.4 26.5 21.5 89 1.3 SSW 7 9 4 5 1013.2 1013.0 15.6
28/09:00pm 23.3 26.6 21.4 89 1.3 S 6 9 3 5 1012.9 1012.7 15.6
28/08:30pm 23.3 26.6 21.4 89 1.3 SSW 6 9 3 5 1012.5 1012.3 15.6
28/08:00pm 23.3 26.1 21.6 90 1.1 S 9 11 5 6 1012.2 1012.0 15.6

Other Formats:

Comma delimited format used in spreadsheet applications
http://www.bom.gov.au/fwo/IDD60801/IDD60801.94100.axf

JavaScript Object Notation format (JSON) in row-major order
http://www.bom.gov.au/fwo/IDD60801/IDD60801.94100.json